Airfield :
LOGIN :

Register | Disclaimer

   EN    FR    IT 

 










Legend :    VFR   Marginal VFR   IFR   Intensive IFR   Very Intensive IFR
Visi :
Ceiling :
>= 8 km
>= 3000ft
5 to 8 km
1000 to 3000 ft
1500m to 5 km
500 to 1000 ft
800 to 1500m
200 to 500 ft
< 800m
< 200 ft
Symbols :   Thunderstorms  Fog  Heavy snow  Heavy precipitations  Wind > 20 kt
SIGMETs :     Misc.  Thunderstorms  Icing  Turbulence  Mountain Waves  Volcanic Ashes






- Airport Elevation : 885 ft
- IATA code : BAS


LFSB - Bale-Mulhouse

CURRENT METAR :
  • 021200Z AUTO 34004KT 310V020 7000 FEW013 OVC020 04/02 Q1017 BECMG BKN013 OVC040

EXPIRED METARs :
  • 021130Z AUTO 31003KT 8000 SCT010 OVC018 04/03 Q1018 BECMG BKN013 OVC040
  • 021100Z AUTO VRB02KT 8000 SCT010 OVC015 04/03 Q1018 BECMG BKN013 OVC040
  • 021030Z AUTO VRB02KT 8000 OVC010 04/03 Q1018 TEMPO FEW010 BKN025
  • 021000Z AUTO 32003KT 280V350 7000 BKN010 BKN015 OVC045 04/03 Q1019 NOSIG
  • 020930Z AUTO 31003KT 5000 BR BKN009 OVC015 04/03 Q1019 BECMG BKN013 OVC040
  • 020900Z AUTO VRB03KT 5000 BR BKN006 BKN010 OVC014 04/03 Q1019 BECMG BKN013 OVC040

TAF TAF LFSB
Valid from the 02 at 12:00 until the 03 at 12:00 UTC


021100Z 0212/0312 36004KT 8000 SCT015 BKN020 BKN045
PROB40
TEMPO 0212/0214 BKN013
PROB30
TEMPO 0219/0222 0800 BCFG OVC002
FM022200 36005KT 6000 OVC006
PROB40
TEMPO 0222/0307 4000 BR OVC004
BECMG 0310/0312 BKN013
Met : +33 3 89 90 31 11



MET'MAP, your aeronautical weather chart ! - Copyright ORBIFLY December 2007 - Disclaimer

ORBIFLY MET'MAP TEAM :

Programming & Development : Alexandra Zaïnal
Original concept : Baudouin d'Aumeries
Technical & hardware support : Manuel Goepfert
Assistance : Marc-Olivier Méhu




SOURCES & CREDITS :

   NOAA